Time;durP1;ratioP1;P1;durP2;ratioP2;P2;SDS_P1;SDS_P2;PMS_P1;PMS_P2;Temp;Humidity;BMP_temperature;BMP_pressure;BME280_temperature;BME280_humidity;BME280_pressure;Samples;Min_cycle;Max_cycle;Signal;HPM_P1;HPM_P2
2022/07/10 00:01:15;;;;;;;4.50;3.78;;;;;;;22.79;50.74;99325.56;5090348;28;20080;-43
2022/07/10 00:03:40;;;;;;;5.85;3.97;;;;;;;22.66;51.15;99320.88;5090703;28;20638;-42
2022/07/10 00:06:07;;;;;;;4.50;4.10;;;;;;;22.76;51.06;99322.63;5090364;28;20122;-46
2022/07/10 00:08:32;;;;;;;6.80;3.95;;;;;;;22.56;51.48;99308.28;5088580;28;20028;-42
2022/07/10 00:10:57;;;;;;;4.65;4.10;;;;;;;22.30;52.20;99315.97;5070221;28;20036;-42
2022/07/10 00:13:23;;;;;;;4.07;3.63;;;;;;;22.21;52.62;99318.47;5070058;28;20043;-43
2022/07/10 00:15:48;;;;;;;5.22;4.13;;;;;;;22.26;52.63;99323.06;5069934;28;20051;-42
2022/07/10 00:18:14;;;;;;;5.22;4.05;;;;;;;22.03;53.17;99309.22;5069945;28;20031;-43
2022/07/10 00:20:40;;;;;;;4.82;4.32;;;;;;;22.03;53.34;99314.66;5070233;28;20033;-43
2022/07/10 00:23:05;;;;;;;5.47;4.32;;;;;;;22.08;53.00;99299.41;5070411;28;20404;-42
2022/07/10 00:25:31;;;;;;;4.75;4.03;;;;;;;22.45;51.94;99307.63;5070153;28;20085;-43
2022/07/10 00:27:56;;;;;;;5.60;3.92;;;;;;;22.59;51.64;99294.13;5070046;28;20029;-43
2022/07/10 00:30:22;;;;;;;5.65;4.40;;;;;;;22.55;51.49;99301.25;5069881;28;20032;-43
2022/07/10 00:32:47;;;;;;;4.88;3.97;;;;;;;22.10;52.76;99300.72;5070112;28;20074;-42
2022/07/10 00:35:12;;;;;;;4.72;4.13;;;;;;;21.97;53.15;99302.25;5067796;28;20017;-42
2022/07/10 00:37:38;;;;;;;5.03;4.18;;;;;;;22.17;52.62;99290.34;5069151;28;20020;-42
2022/07/10 00:40:04;;;;;;;4.63;4.10;;;;;;;22.32;52.14;99294.00;5069709;28;20456;-41
2022/07/10 00:42:30;;;;;;;11.57;4.15;;;;;;;22.16;52.63;99285.22;5069474;28;20032;-43
2022/07/10 00:44:56;;;;;;;5.43;4.25;;;;;;;21.86;53.22;99289.94;5069750;28;20031;-43
2022/07/10 00:47:21;;;;;;;5.03;4.47;;;;;;;22.18;52.43;99291.97;5069978;28;20024;-43
2022/07/10 00:49:47;;;;;;;5.28;4.15;;;;;;;22.16;52.28;99285.22;5069379;28;20053;-42
2022/07/10 00:52:14;;;;;;;7.15;4.65;;;;;;;22.19;51.76;99282.72;5069700;28;20025;-43
2022/07/10 00:54:43;;;;;;;4.63;4.13;;;;;;;22.12;51.79;99279.56;5069743;28;20025;-44
2022/07/10 00:57:09;;;;;;;4.55;4.05;;;;;;;22.10;51.79;99276.34;5070050;28;20575;-42
2022/07/10 00:59:35;;;;;;;4.78;4.28;;;;;;;22.12;51.61;99276.84;5079360;28;20454;-42
2022/07/10 01:02:05;;;;;;;4.68;4.25;;;;;;;22.30;51.15;99275.31;5089983;28;20046;-43
2022/07/10 01:04:31;;;;;;;7.30;5.47;;;;;;;22.21;51.33;99277.81;5089909;28;20024;-43
2022/07/10 01:06:57;;;;;;;7.63;4.78;;;;;;;22.14;51.36;99271.16;5090208;28;20031;-42
2022/07/10 01:09:22;;;;;;;4.85;4.30;;;;;;;22.33;50.88;99273.91;5089111;28;20094;-42
2022/07/10 01:11:48;;;;;;;4.30;3.90;;;;;;;22.24;50.97;99277.25;5090101;28;20051;-43
2022/07/10 01:14:15;;;;;;;5.35;4.50;;;;;;;22.05;51.18;99265.59;5090076;28;20393;-43
2022/07/10 01:16:40;;;;;;;6.95;4.32;;;;;;;22.15;51.40;99278.19;5090315;28;20472;-42
2022/07/10 01:19:06;;;;;;;6.15;4.65;;;;;;;22.01;51.84;99268.06;5090271;28;20036;-43
2022/07/10 01:21:33;;;;;;;5.90;4.50;;;;;;;22.08;51.76;99278.53;5090103;28;20076;-47
2022/07/10 01:24:00;;;;;;;7.90;4.28;;;;;;;21.99;51.63;99274.88;5090167;28;20067;-42
2022/07/10 01:26:26;;;;;;;5.00;4.50;;;;;;;22.03;51.19;99276.72;5090306;28;20111;-42
2022/07/10 01:28:53;;;;;;;5.25;4.60;;;;;;;22.28;50.99;99276.72;5089750;28;20111;-43
2022/07/10 01:31:20;;;;;;;5.45;4.72;;;;;;;22.36;50.10;99263.28;5089718;28;20032;-43
2022/07/10 01:33:46;;;;;;;6.30;4.75;;;;;;;22.29;50.85;99268.25;5089321;28;20031;-43
2022/07/10 01:36:12;;;;;;;6.35;5.22;;;;;;;22.04;51.35;99263.97;5089985;28;20020;-42
2022/07/10 01:38:40;;;;;;;5.57;5.07;;;;;;;21.87;52.00;99261.75;5090170;28;20034;-42
2022/07/10 01:41:06;;;;;;;5.97;5.00;;;;;;;21.81;52.17;99257.50;5089893;28;20135;-43
2022/07/10 01:43:31;;;;;;;7.65;5.20;;;;;;;21.86;51.62;99252.81;5089715;28;20096;-43
2022/07/10 01:45:57;;;;;;;4.95;4.45;;;;;;;21.92;51.97;99248.16;5092784;28;20028;-43
2022/07/10 01:48:22;;;;;;;5.63;4.55;;;;;;;21.95;51.55;99249.47;5096863;28;20035;-43
2022/07/10 01:50:48;;;;;;;5.38;4.60;;;;;;;22.00;51.51;99255.63;5096595;28;20052;-42
2022/07/10 01:53:13;;;;;;;4.57;4.18;;;;;;;22.08;51.23;99245.22;5096435;28;20325;-43
2022/07/10 01:55:39;;;;;;;4.68;4.20;;;;;;;22.00;51.17;99243.97;5096572;28;20478;-42
2022/07/10 01:58:04;;;;;;;5.85;4.43;;;;;;;22.18;50.54;99245.09;5096243;28;20031;-43
2022/07/10 02:00:30;;;;;;;4.97;4.28;;;;;;;22.11;50.96;99239.25;5094669;28;20031;-42
2022/07/10 02:05:39;;;;;;;4.93;4.13;;;;;;;22.13;50.66;99224.28;5095652;28;20122;-43
2022/07/10 02:08:06;;;;;;;6.70;4.63;;;;;;;22.04;50.69;99234.97;5095784;28;20523;-43
2022/07/10 02:10:32;;;;;;;6.88;4.13;;;;;;;21.93;50.78;99227.28;5077023;28;20021;-44
2022/07/10 02:12:57;;;;;;;4.75;4.35;;;;;;;22.05;50.99;99235.78;5074897;28;20085;-45
2022/07/10 02:15:23;;;;;;;5.32;4.43;;;;;;;21.96;50.90;99249.16;5074589;28;20090;-44
2022/07/10 02:17:48;;;;;;;7.88;4.20;;;;;;;21.82;51.19;99243.66;5074960;28;20450;-42
2022/07/10 02:20:14;;;;;;;5.20;4.70;;;;;;;21.59;52.22;99234.47;5074663;28;20074;-43
2022/07/10 02:22:39;;;;;;;4.80;4.30;;;;;;;21.71;51.68;99238.66;5075491;28;20537;-42
2022/07/10 02:25:05;;;;;;;7.35;4.50;;;;;;;21.98;51.12;99238.84;5075790;28;20076;-43
2022/07/10 02:27:31;;;;;;;5.60;4.20;;;;;;;21.64;51.64;99239.00;5075742;28;20043;-43
2022/07/10 02:29:57;;;;;;;6.38;4.40;;;;;;;21.61;52.04;99243.09;5075812;28;20392;-43
2022/07/10 02:32:22;;;;;;;4.65;4.25;;;;;;;21.32;52.66;99247.72;5075912;28;20035;-42
2022/07/10 02:34:48;;;;;;;6.93;4.55;;;;;;;21.37;52.34;99237.66;5075535;28;20443;-42
2022/07/10 02:37:13;;;;;;;4.80;4.30;;;;;;;21.77;51.33;99232.88;5075431;28;20040;-42
2022/07/10 02:39:38;;;;;;;5.18;4.68;;;;;;;21.93;50.92;99244.31;5076121;28;20101;-43
2022/07/10 02:42:04;;;;;;;5.47;4.22;;;;;;;21.73;50.85;99239.19;5075883;28;20025;-42
2022/07/10 02:44:29;;;;;;;5.10;4.60;;;;;;;21.23;52.20;99242.94;5075878;28;20097;-42
2022/07/10 02:46:55;;;;;;;7.30;4.28;;;;;;;21.45;52.13;99238.94;5075448;28;20021;-42
2022/07/10 02:49:20;;;;;;;6.30;4.78;;;;;;;21.77;50.74;99237.50;5075715;28;20044;-42
2022/07/10 02:51:46;;;;;;;4.72;4.22;;;;;;;21.37;52.12;99243.06;5075813;28;20024;-43
2022/07/10 02:54:11;;;;;;;5.20;4.40;;;;;;;21.70;50.97;99243.25;5075439;28;20476;-42
2022/07/10 02:56:37;;;;;;;7.25;4.38;;;;;;;21.44;52.03;99240.84;5075288;28;20024;-42
2022/07/10 02:59:02;;;;;;;4.93;4.43;;;;;;;21.30;52.36;99248.00;5076952;28;20042;-43
2022/07/10 03:01:28;;;;;;;8.05;4.40;;;;;;;21.35;51.89;99242.53;5092511;28;20039;-43
2022/07/10 03:03:53;;;;;;;6.20;4.60;;;;;;;21.60;51.13;99241.47;5092909;28;20107;-42
2022/07/10 03:06:19;;;;;;;5.97;4.95;;;;;;;21.52;51.65;99246.75;5092159;28;20411;-43
2022/07/10 03:08:44;;;;;;;4.75;4.22;;;;;;;21.50;51.82;99252.44;5092152;28;20032;-43
2022/07/10 03:11:10;;;;;;;5.30;4.80;;;;;;;21.36;52.49;99255.00;5092559;28;20031;-43
2022/07/10 03:13:35;;;;;;;6.72;4.80;;;;;;;21.47;52.08;99259.22;5092425;28;20085;-42
2022/07/10 03:16:00;;;;;;;4.93;4.43;;;;;;;21.42;52.37;99256.56;5092331;28;20028;-42
2022/07/10 03:18:26;;;;;;;5.53;4.88;;;;;;;21.32;52.65;99259.34;5092027;28;20035;-44
2022/07/10 03:20:51;;;;;;;4.97;4.47;;;;;;;21.48;52.09;99254.63;5092078;28;20107;-43
2022/07/10 03:23:17;;;;;;;4.80;4.30;;;;;;;21.44;52.51;99253.59;5092369;28;20107;-37
2022/07/10 03:25:42;;;;;;;6.75;5.10;;;;;;;21.16;53.21;99255.19;5092514;28;20020;-37
2022/07/10 03:28:08;;;;;;;5.43;4.93;;;;;;;21.40;52.34;99247.09;5092255;28;20024;-37
2022/07/10 03:30:33;;;;;;;5.72;5.13;;;;;;;21.22;53.10;99241.31;5092106;28;20452;-37
2022/07/10 03:32:59;;;;;;;5.80;5.00;;;;;;;21.26;53.53;99247.75;5092158;28;20096;-37
2022/07/10 03:35:25;;;;;;;7.50;5.03;;;;;;;21.53;52.20;99240.22;5091988;28;20145;-37
2022/07/10 03:37:51;;;;;;;6.82;5.15;;;;;;;21.07;53.77;99239.56;5092308;28;20039;-37
2022/07/10 03:40:16;;;;;;;5.75;5.10;;;;;;;21.01;54.03;99243.41;5091790;28;20435;-43
2022/07/10 03:42:42;;;;;;;7.68;5.38;;;;;;;20.92;54.91;99233.50;5091912;28;20023;-44
2022/07/10 03:45:07;;;;;;;7.15;5.82;;;;;;;20.86;55.02;99241.66;5091623;28;20020;-44
2022/07/10 03:47:33;;;;;;;6.40;5.80;;;;;;;20.96;55.00;99237.25;5091591;28;20016;-43
2022/07/10 03:49:58;;;;;;;7.45;5.63;;;;;;;20.99;57.73;99221.25;5091620;28;20090;-43
2022/07/10 03:52:24;;;;;;;6.63;5.82;;;;;;;21.31;54.40;99221.78;5091425;28;20051;-37
2022/07/10 03:54:49;;;;;;;6.50;5.90;;;;;;;21.08;54.68;99230.38;5091506;28;20099;-43
2022/07/10 03:59:59;;;;;;;7.53;6.10;;;;;;;21.46;53.80;99227.84;5091797;28;20046;-42
2022/07/10 04:02:24;;;;;;;7.95;6.13;;;;;;;21.69;53.66;99236.25;5090536;28;20024;-43
2022/07/10 04:04:49;;;;;;;6.90;5.88;;;;;;;21.77;53.31;99235.59;5090301;28;20035;-43
2022/07/10 04:07:16;;;;;;;6.38;5.60;;;;;;;21.85;52.61;99231.44;5090948;28;20034;-43
2022/07/10 04:09:41;;;;;;;6.22;5.53;;;;;;;21.85;52.66;99239.56;5089624;28;20085;-42
2022/07/10 04:12:07;;;;;;;6.10;5.50;;;;;;;21.86;52.82;99230.34;5090940;28;20399;-44
2022/07/10 04:14:33;;;;;;;7.18;6.00;;;;;;;21.93;52.53;99246.22;5090956;28;20020;-43
2022/07/10 04:16:58;;;;;;;8.80;6.32;;;;;;;22.11;52.55;99241.94;5081707;28;20147;-45
2022/07/10 04:19:23;;;;;;;8.88;5.88;;;;;;;22.10;52.33;99230.28;5070813;28;20029;-42
2022/07/10 04:21:49;;;;;;;7.35;5.50;;;;;;;22.21;51.89;99229.03;5070720;28;20039;-42
2022/07/10 04:24:14;;;;;;;6.68;5.65;;;;;;;22.44;51.50;99235.50;5070494;28;20031;-42
2022/07/10 04:26:40;;;;;;;6.30;5.28;;;;;;;22.53;51.36;99232.94;5071035;28;20024;-43
2022/07/10 04:29:05;;;;;;;8.02;5.57;;;;;;;22.36;51.42;99229.97;5069373;28;20400;-42
2022/07/10 04:31:31;;;;;;;7.03;5.72;;;;;;;22.23;51.67;99221.44;5070391;28;20078;-42
2022/07/10 04:33:57;;;;;;;5.50;5.03;;;;;;;22.13;52.22;99226.22;5070109;28;20035;-42
2022/07/10 04:36:23;;;;;;;6.13;5.38;;;;;;;22.35;51.66;99228.34;5082261;28;20027;-43
2022/07/10 04:38:48;;;;;;;7.80;5.30;;;;;;;22.48;51.10;99227.59;5091082;28;20056;-43
2022/07/10 04:41:14;;;;;;;5.82;5.20;;;;;;;22.30;51.69;99234.66;5090875;28;20184;-47
2022/07/10 04:43:39;;;;;;;5.90;5.35;;;;;;;22.12;51.83;99238.13;5090853;28;20024;-42
2022/07/10 04:46:06;;;;;;;5.95;5.30;;;;;;;22.56;51.01;99248.63;5090403;28;20031;-42
2022/07/10 04:48:32;;;;;;;6.18;5.60;;;;;;;21.81;52.15;99239.34;5090519;28;20460;-37
2022/07/10 04:50:57;;;;;;;5.97;5.30;;;;;;;21.99;52.29;99253.19;5090509;28;20039;-37
2022/07/10 04:53:23;;;;;;;5.70;5.10;;;;;;;21.71;52.64;99233.25;5089976;28;20077;-38
2022/07/10 04:55:48;;;;;;;6.55;4.95;;;;;;;22.17;51.95;99252.41;5089851;28;20039;-37
2022/07/10 04:58:14;;;;;;;5.25;4.75;;;;;;;22.53;51.28;99245.72;5089923;28;20082;-37
2022/07/10 05:00:40;;;;;;;5.65;5.10;;;;;;;22.72;50.58;99242.97;5089736;28;20047;-37
2022/07/10 05:03:05;;;;;;;5.78;5.05;;;;;;;22.13;51.98;99237.84;5090405;28;20111;-37
2022/07/10 05:05:30;;;;;;;5.65;5.05;;;;;;;22.33;51.54;99246.81;5089786;28;20020;-37
2022/07/10 05:07:56;;;;;;;5.90;5.30;;;;;;;22.68;51.00;99250.88;5089962;28;20020;-37
2022/07/10 05:10:22;;;;;;;5.63;5.10;;;;;;;23.41;49.25;99243.94;5089770;28;20060;-43
2022/07/10 05:12:48;;;;;;;5.95;5.00;;;;;;;24.01;47.92;99253.13;5089582;28;20104;-42
2022/07/10 05:15:13;;;;;;;5.90;5.00;;;;;;;24.00;47.84;99252.28;5089537;28;20079;-43
2022/07/10 05:17:39;;;;;;;6.25;5.00;;;;;;;24.76;46.52;99250.88;5089211;28;20055;-43
2022/07/10 05:20:05;;;;;;;5.50;4.95;;;;;;;25.37;45.31;99251.25;5088303;28;20097;-45
2022/07/10 05:22:30;;;;;;;5.93;5.00;;;;;;;25.59;44.58;99253.09;5088934;28;20506;-42
2022/07/10 05:24:56;;;;;;;5.45;5.00;;;;;;;25.50;44.54;99249.53;5089610;28;20064;-43
2022/07/10 05:27:22;;;;;;;5.72;4.80;;;;;;;26.28;43.42;99252.47;5089046;28;20149;-43
2022/07/10 05:29:47;;;;;;;7.28;5.10;;;;;;;26.52;42.70;99254.72;5089179;28;20015;-45
2022/07/10 05:32:13;;;;;;;8.07;4.97;;;;;;;27.04;41.97;99262.06;5088632;28;20071;-43
2022/07/10 05:34:39;;;;;;;5.18;4.68;;;;;;;27.34;40.78;99251.25;5088495;28;20120;-43
2022/07/10 05:37:05;;;;;;;5.80;4.97;;;;;;;27.09;41.44;99253.69;5082721;28;20031;-43
2022/07/10 05:39:30;;;;;;;5.28;4.72;;;;;;;27.49;40.36;99261.63;5089121;28;20032;-43
2022/07/10 05:41:57;;;;;;;5.10;4.60;;;;;;;27.47;40.77;99257.59;5084643;28;20024;-43
2022/07/10 05:44:23;;;;;;;5.63;4.85;;;;;;;27.73;40.19;99259.41;5078044;28;20024;-42
2022/07/10 05:46:49;;;;;;;7.20;5.00;;;;;;;28.22;39.20;99263.31;5076262;28;20032;-44
2022/07/10 05:49:14;;;;;;;6.15;5.22;;;;;;;26.79;41.87;99260.16;5077866;28;20048;-43
2022/07/10 05:51:39;;;;;;;7.88;5.03;;;;;;;26.90;41.70;99256.78;5075626;28;20037;-42
2022/07/10 05:54:05;;;;;;;5.15;4.65;;;;;;;27.75;40.32;99251.69;5072833;28;20592;-43
2022/07/10 05:56:30;;;;;;;8.57;5.38;;;;;;;27.88;39.58;99251.47;5078378;28;20054;-43
2022/07/10 05:58:56;;;;;;;5.32;4.55;;;;;;;28.55;38.65;99251.66;5078891;28;20436;-42
2022/07/10 06:01:22;;;;;;;4.80;4.38;;;;;;;29.43;37.23;99252.38;5076729;28;20050;-43
2022/07/10 06:03:48;;;;;;;5.65;4.35;;;;;;;28.95;37.73;99248.38;5079301;28;20096;-44
2022/07/10 06:06:15;;;;;;;6.38;4.72;;;;;;;28.22;38.42;99248.84;5076410;28;20024;-44
2022/07/10 06:08:41;;;;;;;5.03;4.53;;;;;;;27.87;39.43;99262.69;5079005;28;20099;-43
2022/07/10 06:11:06;;;;;;;7.30;4.30;;;;;;;28.21;38.81;99252.72;5076853;28;20054;-44
2022/07/10 06:13:32;;;;;;;5.30;4.38;;;;;;;28.65;38.51;99264.13;5078565;28;20023;-42
2022/07/10 06:15:57;;;;;;;4.95;4.45;;;;;;;28.47;38.43;99264.25;5084089;28;20028;-43
2022/07/10 06:18:22;;;;;;;5.38;4.40;;;;;;;27.63;40.14;99260.59;5079163;28;20020;-43
2022/07/10 06:20:48;;;;;;;5.47;4.97;;;;;;;27.69;40.07;99256.53;5085569;28;20028;-43
2022/07/10 06:23:13;;;;;;;5.55;4.95;;;;;;;27.45;40.37;99257.91;5088626;28;20520;-43
2022/07/10 06:25:39;;;;;;;7.82;4.97;;;;;;;27.30;40.89;99253.81;5088870;28;20032;-46
2022/07/10 06:28:04;;;;;;;5.28;4.78;;;;;;;27.46;40.56;99256.81;5088796;28;20027;-43
2022/07/10 06:30:30;;;;;;;5.28;4.78;;;;;;;27.27;40.99;99253.69;5088655;28;20028;-43
2022/07/10 06:32:55;;;;;;;4.95;4.50;;;;;;;27.13;41.29;99253.03;5089754;28;20028;-44
2022/07/10 06:35:20;;;;;;;4.93;4.50;;;;;;;27.71;40.41;99257.00;5092559;28;20065;-45
2022/07/10 06:37:46;;;;;;;5.22;4.50;;;;;;;27.76;40.24;99256.84;5092623;28;20028;-44
2022/07/10 06:40:16;;;;;;;6.93;4.43;;;;;;;28.41;39.20;99257.38;5092463;28;20032;-45
2022/07/10 06:42:41;;;;;;;6.20;4.90;;;;;;;28.50;39.01;99256.50;5092276;28;20038;-43
2022/07/10 06:45:07;;;;;;;6.82;5.00;;;;;;;29.13;37.78;99254.50;5092178;28;20024;-43
2022/07/10 06:50:17;;;;;;;6.63;4.75;;;;;;;28.50;38.91;99264.72;5092039;28;20419;-43
2022/07/10 06:52:43;;;;;;;5.20;4.40;;;;;;;28.17;39.82;99268.19;5091917;28;20110;-43
2022/07/10 06:55:09;;;;;;;4.82;4.32;;;;;;;29.00;38.45;99270.06;5092088;28;20024;-45
2022/07/10 06:57:35;;;;;;;5.10;4.60;;;;;;;28.78;38.32;99257.56;5092213;28;20032;-45
2022/07/10 07:00:01;;;;;;;5.45;4.65;;;;;;;28.62;38.67;99267.53;5078258;28;20034;-43
2022/07/10 07:02:26;;;;;;;5.05;4.55;;;;;;;28.24;39.61;99263.00;5086385;28;20458;-44
2022/07/10 07:04:52;;;;;;;4.95;4.50;;;;;;;28.49;38.85;99265.84;5091496;28;20472;-43
2022/07/10 07:07:18;;;;;;;7.28;4.95;;;;;;;27.91;40.23;99260.94;5091977;28;20027;-42
2022/07/10 07:09:44;;;;;;;6.00;4.60;;;;;;;27.72;40.43;99264.09;5091831;28;20032;-37
2022/07/10 07:12:10;;;;;;;5.80;4.50;;;;;;;28.27;39.78;99259.56;5091341;28;20456;-37
2022/07/10 07:14:35;;;;;;;7.32;4.43;;;;;;;28.27;39.83;99267.78;5090982;28;20077;-37
2022/07/10 07:17:09;;;;;;;7.95;4.63;;;;;;;28.53;39.64;99259.41;5091812;28;20024;-36
2022/07/10 07:25:05;;;;;;;4.90;4.40;;;;;;;28.65;39.09;99256.72;5090939;28;20152;-36
2022/07/10 07:27:30;;;;;;;5.47;4.60;;;;;;;28.63;39.18;99247.22;5090941;28;20020;-37
2022/07/10 07:29:56;;;;;;;5.35;4.75;;;;;;;27.84;40.49;99258.72;5091034;28;20019;-38
2022/07/10 07:32:21;;;;;;;5.05;4.55;;;;;;;27.67;40.41;99251.41;5091258;28;20027;-36
2022/07/10 07:34:47;;;;;;;5.55;4.68;;;;;;;27.28;41.06;99256.09;5090911;28;20022;-37
2022/07/10 07:37:12;;;;;;;6.45;4.95;;;;;;;27.49;41.14;99249.88;5079564;28;20476;-38
2022/07/10 07:39:37;;;;;;;8.20;5.20;;;;;;;28.03;40.26;99255.56;5079749;28;20099;-37
2022/07/10 07:42:03;;;;;;;7.20;5.20;;;;;;;28.03;40.62;99252.03;5078491;28;20040;-37
2022/07/10 07:44:29;;;;;;;5.38;4.88;;;;;;;28.24;39.96;99252.84;5087104;28;20471;-37
2022/07/10 07:46:55;;;;;;;5.88;4.88;;;;;;;28.14;40.49;99247.78;5074398;28;20043;-37
2022/07/10 07:49:20;;;;;;;5.47;4.97;;;;;;;28.07;40.44;99248.28;5091367;28;20051;-38
2022/07/10 07:51:47;;;;;;;5.22;4.60;;;;;;;28.32;40.11;99253.13;5081280;28;20039;-37
2022/07/10 07:54:12;;;;;;;5.65;4.70;;;;;;;28.93;39.25;99250.66;5085153;28;20016;-38
2022/07/10 07:56:38;;;;;;;5.95;5.03;;;;;;;30.18;37.48;99251.19;5073772;28;20451;-38
2022/07/10 07:59:03;;;;;;;5.32;4.82;;;;;;;30.57;36.76;99248.78;5070642;28;20070;-37
2022/07/10 08:01:29;;;;;;;5.47;4.72;;;;;;;30.85;36.25;99241.69;5090256;28;20023;-38
2022/07/10 08:03:55;;;;;;;5.32;4.70;;;;;;;30.86;35.96;99246.81;5091284;28;20024;-37
2022/07/10 08:06:21;;;;;;;5.35;4.70;;;;;;;31.07;35.19;99251.31;5091450;28;20149;-37
2022/07/10 08:08:46;;;;;;;5.93;4.57;;;;;;;30.65;35.57;99252.53;5091309;28;20114;-37
2022/07/10 08:11:11;;;;;;;5.22;4.60;;;;;;;30.26;35.89;99245.91;5091308;28;20080;-37
2022/07/10 08:13:37;;;;;;;4.88;4.47;;;;;;;30.31;35.96;99257.44;5091009;28;20024;-44
2022/07/10 08:16:02;;;;;;;5.78;4.50;;;;;;;30.71;35.14;99253.06;5091391;28;20027;-46
2022/07/10 08:18:28;;;;;;;6.38;5.30;;;;;;;31.01;34.66;99256.28;5090815;28;20599;-44
2022/07/10 08:20:53;;;;;;;5.30;4.80;;;;;;;30.81;35.63;99252.59;5090895;28;20016;-44
2022/07/10 08:23:18;;;;;;;5.82;4.68;;;;;;;31.61;34.21;99252.69;5090755;28;20026;-43
2022/07/10 08:25:44;;;;;;;5.85;5.25;;;;;;;31.34;34.62;99244.97;5090648;28;20058;-44
2022/07/10 08:28:12;;;;;;;5.68;4.90;;;;;;;30.33;35.52;99249.69;5090547;28;20383;-46
2022/07/10 08:30:38;;;;;;;4.85;4.45;;;;;;;29.95;36.30;99258.31;5090726;28;20085;-44
2022/07/10 08:33:04;;;;;;;5.90;4.75;;;;;;;30.06;36.14;99256.69;5090667;28;20028;-44
2022/07/10 08:35:30;;;;;;;5.60;4.45;;;;;;;30.52;35.10;99256.47;5071984;28;20047;-45
2022/07/10 08:37:55;;;;;;;4.82;4.40;;;;;;;30.21;35.32;99253.25;5070349;28;20099;-44
2022/07/10 08:40:22;;;;;;;6.13;4.30;;;;;;;29.73;36.28;99252.16;5070137;28;20103;-45
2022/07/10 08:42:48;;;;;;;4.95;4.55;;;;;;;30.01;35.93;99260.47;5070290;28;20036;-42
2022/07/10 08:45:14;;;;;;;5.05;4.55;;;;;;;29.96;35.49;99246.19;5069926;28;20028;-43
2022/07/10 08:47:44;;;;;;;5.25;4.45;;;;;;;30.15;35.38;99259.31;5069968;28;20038;-42
2022/07/10 08:50:24;;;;;;;6.65;4.60;;;;;;;30.62;34.96;99256.00;5069765;28;20894;-42
2022/07/10 08:53:04;;;;;;;5.03;4.50;;;;;;;29.41;36.86;99257.38;5070222;28;20192;-47
2022/07/10 08:55:29;;;;;;;5.80;5.20;;;;;;;29.46;36.94;99261.84;5070019;28;20047;-44
2022/07/10 08:57:58;;;;;;;5.43;4.70;;;;;;;29.69;36.58;99255.91;5070877;28;20377;-43
2022/07/10 09:00:24;;;;;;;;;;;;;;;29.23;38.33;99253.25;5088024;28;20032;-42
2022/07/10 09:02:49;;;;;;;5.93;4.60;;;;;;;29.00;38.38;99256.38;5091079;28;20367;-43
2022/07/10 09:05:15;;;;;;;5.78;4.63;;;;;;;29.63;36.66;99258.88;5091037;28;20016;-44
2022/07/10 09:07:50;;;;;;;5.72;5.13;;;;;;;28.37;38.54;99252.91;5090422;28;20036;-44
2022/07/10 09:10:20;;;;;;;6.25;5.07;;;;;;;28.34;39.23;99261.78;5089140;28;20070;-37
2022/07/10 09:12:54;;;;;;;6.00;5.40;;;;;;;28.27;39.09;99246.72;5089821;28;20108;-37
2022/07/10 09:15:24;;;;;;;5.20;4.70;;;;;;;29.00;39.13;99258.31;5090244;28;20027;-37
2022/07/10 09:17:55;;;;;;;6.00;5.40;;;;;;;29.13;38.11;99256.41;5090689;28;20047;-36
2022/07/10 09:20:35;;;;;;;5.80;5.25;;;;;;;29.60;36.63;99253.28;5089672;28;20024;-38
2022/07/10 09:23:17;;;;;;;5.70;5.20;;;;;;;29.49;37.49;99261.16;5089412;28;20027;-37
2022/07/10 09:25:44;;;;;;;6.72;6.07;;;;;;;28.96;38.11;99262.84;5088245;28;20071;-36
2022/07/10 09:28:09;;;;;;;5.70;5.15;;;;;;;28.97;38.84;99261.72;5087461;28;20039;-37
2022/07/10 09:30:37;;;;;;;7.35;6.10;;;;;;;28.80;38.65;99271.69;5087199;28;20021;-37
2022/07/10 09:33:27;;;;;;;6.65;5.15;;;;;;;28.26;39.52;99268.94;5087142;28;20027;-37
2022/07/10 09:36:10;;;;;;;6.85;5.40;;;;;;;28.70;38.81;99274.88;5087447;28;20047;-41
2022/07/10 09:38:45;;;;;;;6.30;5.63;;;;;;;28.69;38.61;99272.47;5087460;28;20036;-37
2022/07/10 09:41:17;;;;;;;7.15;5.50;;;;;;;28.59;39.28;99268.22;5087838;28;20160;-37
2022/07/10 09:43:53;;;;;;;7.25;5.22;;;;;;;28.69;40.14;99273.25;5088422;28;20020;-37
2022/07/10 09:46:40;;;;;;;5.80;5.30;;;;;;;28.77;39.51;99268.84;5089574;28;20058;-36
2022/07/10 09:49:14;;;;;;;6.32;5.20;;;;;;;28.67;39.25;99272.78;5089381;28;20076;-36
2022/07/10 09:51:46;;;;;;;6.57;5.22;;;;;;;29.26;37.83;99270.94;5089758;28;20036;-37
2022/07/10 09:54:12;;;;;;;6.28;5.40;;;;;;;28.87;38.86;99268.44;5089146;28;20065;-36
2022/07/10 09:56:51;;;;;;;7.13;5.40;;;;;;;28.72;39.28;99280.00;5089692;28;20052;-37
2022/07/10 09:59:18;;;;;;;6.20;5.00;;;;;;;28.43;39.62;99268.00;5081940;28;20056;-37
2022/07/10 10:01:46;;;;;;;7.53;6.70;;;;;;;28.50;39.30;99270.19;5069260;28;20020;-37
2022/07/10 10:04:12;;;;;;;6.25;5.63;;;;;;;28.44;39.81;99272.31;5068433;28;20082;-37
2022/07/10 10:06:40;;;;;;;7.40;5.50;;;;;;;29.14;38.62;99266.25;5070132;28;20065;-37
2022/07/10 10:09:15;;;;;;;6.13;5.33;;;;;;;28.74;39.21;99275.00;5073358;28;20484;-37
2022/07/10 10:11:43;;;;;;;8.07;5.38;;;;;;;28.45;39.92;99263.00;5071722;28;20103;-38
2022/07/10 10:14:09;;;;;;;7.37;5.43;;;;;;;28.31;39.55;99266.00;5071352;28;20020;-36
2022/07/10 10:16:37;;;;;;;8.70;5.07;;;;;;;28.19;39.05;99263.19;5072558;28;20391;-36
2022/07/10 10:21:46;;;;;;;5.70;5.13;;;;;;;28.17;39.32;99249.84;5073006;28;20082;-36
2022/07/10 10:24:14;;;;;;;7.07;5.20;;;;;;;28.40;39.32;99255.75;5072639;28;20107;-36
2022/07/10 10:26:41;;;;;;;5.90;5.03;;;;;;;28.88;38.67;99259.06;5072634;28;20400;-37
2022/07/10 10:29:06;;;;;;;5.63;5.00;;;;;;;28.52;39.47;99267.94;5072717;28;20024;-37
2022/07/10 10:31:33;;;;;;;6.03;5.00;;;;;;;28.61;39.45;99254.97;5072627;28;20032;-37
2022/07/10 10:34:00;;;;;;;6.25;5.43;;;;;;;28.62;39.47;99251.91;5072550;28;20016;-37
2022/07/10 10:36:46;;;;;;;7.55;5.15;;;;;;;29.03;38.98;99246.66;5072221;28;20423;-38
2022/07/10 10:39:16;;;;;;;5.68;5.18;;;;;;;29.27;39.07;99245.16;5072530;28;20020;-37
2022/07/10 10:41:45;;;;;;;4.93;4.43;;;;;;;29.75;36.21;99244.38;5072517;28;20021;-37
2022/07/10 10:44:13;;;;;;;5.90;4.90;;;;;;;29.89;36.12;99237.75;5072107;28;20025;-37
2022/07/10 10:46:50;;;;;;;5.60;4.78;;;;;;;30.11;36.53;99239.19;5072115;28;20024;-37
2022/07/10 10:49:16;;;;;;;5.15;4.50;;;;;;;30.54;35.48;99233.03;5072655;28;20048;-37
2022/07/10 10:52:04;;;;;;;5.03;4.50;;;;;;;30.80;34.23;99238.03;5072613;28;20107;-37
2022/07/10 10:55:00;;;;;;;5.63;4.15;;;;;;;31.32;32.45;99227.22;5071615;28;20194;-37
2022/07/10 10:57:31;;;;;;;4.30;3.90;;;;;;;31.68;31.86;99234.41;5071908;28;20361;-37
2022/07/10 10:59:58;;;;;;;4.53;4.07;;;;;;;32.05;31.11;99222.28;5085407;28;20055;-37
2022/07/10 11:02:29;;;;;;;4.95;4.07;;;;;;;31.88;31.72;99227.00;5092177;28;20039;-37
2022/07/10 11:05:18;;;;;;;4.15;3.83;;;;;;;31.64;30.87;99219.75;5091866;28;20020;-37
2022/07/10 11:08:04;;;;;;;5.38;3.75;;;;;;;31.87;30.75;99217.16;5092236;28;20126;-37
2022/07/10 11:10:38;;;;;;;4.55;4.15;;;;;;;31.64;30.75;99208.75;5091719;28;20107;-37
2022/07/10 11:13:10;;;;;;;5.22;4.30;;;;;;;31.81;31.35;99204.81;5092070;28;20058;-37
2022/07/10 11:16:11;;;;;;;6.15;4.53;;;;;;;31.97;32.12;99202.03;5091820;28;20376;-37
2022/07/10 11:18:37;;;;;;;5.28;4.00;;;;;;;32.04;31.26;99191.19;5091355;28;20028;-37
2022/07/10 11:21:03;;;;;;;5.35;4.10;;;;;;;32.17;31.33;99193.81;5091627;28;20471;-36
2022/07/10 11:23:50;;;;;;;4.38;3.97;;;;;;;32.07;31.06;99189.69;5091596;28;20180;-37
2022/07/10 11:26:36;;;;;;;5.40;4.10;;;;;;;31.84;30.63;99189.56;5091746;28;20040;-37
2022/07/10 11:29:06;;;;;;;4.53;4.10;;;;;;;32.44;29.96;99190.03;5091913;28;20443;-37
2022/07/10 11:31:37;;;;;;;4.57;4.18;;;;;;;33.09;28.80;99196.72;5091519;28;20078;-37
2022/07/10 11:34:03;;;;;;;5.65;4.03;;;;;;;32.53;29.21;99189.81;5091406;28;20020;-37
2022/07/10 11:36:31;;;;;;;4.20;3.70;;;;;;;32.35;29.31;99186.72;5091539;28;20419;-37
2022/07/10 11:39:07;;;;;;;4.18;3.83;;;;;;;32.30;29.01;99182.28;5091660;28;20031;-37
2022/07/10 11:41:34;;;;;;;4.60;4.20;;;;;;;32.32;30.18;99185.47;5091177;28;20111;-37
2022/07/10 11:44:03;;;;;;;3.97;3.67;;;;;;;32.56;28.68;99178.06;5091134;28;20511;-37
2022/07/10 11:46:34;;;;;;;4.28;3.90;;;;;;;32.46;29.35;99176.72;5091459;28;20028;-37
2022/07/10 11:49:04;;;;;;;4.10;3.67;;;;;;;32.51;28.32;99173.66;5091180;28;20055;-37
2022/07/10 11:51:39;;;;;;;4.25;3.72;;;;;;;32.81;28.13;99177.75;5091384;28;20028;-37